This is the latest recevied weather packets stored in our database for station/object SV2ASS-2. If no packets are shown the sender has not sent any weather packets the latest 10 day(s).
| Time | Temp. | Humidity | Pressure | Rain* | Wind** | Luminosity | Snow |
|---|---|---|---|---|---|---|---|
| 1777559454 | 14.44° C | 65% | 1018.9 hPa | - | - | - | - |
| 1777557654 | 13.89° C | 62% | 1018.7 hPa | - | - | - | - |
| 1777556754 | 14.44° C | 62% | 1018.4 hPa | - | - | - | - |
| 1777555854 | 14.44° C | 63% | 1018.6 hPa | - | - | - | - |
| 1777554954 | 15.56° C | 63% | 1018.4 hPa | - | - | - | - |
| 1777554054 | 16.11° C | 61% | 1018.7 hPa | - | - | - | - |
| 1777552253 | 17.22° C | 60% | 1019 hPa | - | - | - | - |
| 1777551353 | 18.33° C | 61% | 1018.9 hPa | - | - | - | - |
| 1777548653 | 20° C | 47% | 1019 hPa | - | - | - | - |
| 1777547752 | 20.56° C | 49% | 1019.1 hPa | - | - | - | - |
| 1777545952 | 20.56° C | 48% | 1019.2 hPa | - | - | - | - |
| 1777545052 | 21.11° C | 49% | 1019.3 hPa | - | - | - | - |
| 1777544154 | 21.11° C | 49% | 1019.5 hPa | - | - | - | - |
| 1777543254 | 21.67° C | 48% | 1019.5 hPa | - | - | - | - |
| 1777542354 | 20° C | 53% | 1019.6 hPa | - | - | - | - |
| 1777541454 | 20° C | 53% | 1019.9 hPa | - | - | - | - |
| 1777540554 | 21.11° C | 49% | 1020.1 hPa | - | - | - | - |
| 1777539654 | 21.11° C | 49% | 1020.3 hPa | - | - | - | - |
| 1777538754 | 18.89° C | 54% | 1020.2 hPa | - | - | - | - |
| 1777537854 | 18.89° C | 54% | 1020.2 hPa | - | - | - | - |
| 1777536953 | 18.89° C | 55% | 1020.4 hPa | - | - | - | - |
| 1777536269 | 18.33° C | 54% | 1020.4 hPa | - | - | - | - |
| 1777535153 | 17.22° C | 58% | 1020.5 hPa | - | - | - | - |
| 1777534253 | 17.22° C | 58% | 1020.4 hPa | - | - | - | - |
| 1777533353 | 16.11° C | 58% | 1020.3 hPa | - | - | - | - |
* Rain since midnight (hover to see other rain measurements)
** Current wind speed in m/s (hover to see current wind gust speed)